Terminal Aerodrome Forecast
Issued by NWS

Home | Current Version | Previous Version | Text Only | Print | Product List | Glossary On
Versions: 1 2 3 4 5 6 7 8 9 10 11 12 13 14 15 16 17 18 19 20 21 22 23 24 25 26 27 28 29 30 31 32 33 34 35 36 37 38 39 40 41 42
000
FTUS43 KGRB 271500 AAA
TAFRHI
TAF AMD
KRHI 271545Z 2716/2812 34005KT 1SM -SN BR OVC009
      TEMPO 2716/2717 1/2SM SN BKN006
     FM272000 29009KT 5SM -SN BKN018
     FM272200 29008KT P6SM SCT020 BKN040
     FM280200 26006KT P6SM SCT040 BKN120=

USA.gov is the U.S. government's official web portal to all federal, state and local government web resources and services.